Time,TemperatureF,DewpointF,PressureIn,WindDirection,WindDirectionDegrees,WindSpeedMPH,WindSpeedGustMPH,Humidity,HourlyPrecipIn,Conditions,Clouds,dailyrainin,SoftwareType,DateUTC
2013-11-13 00:07:00,54.4,53.0,30.29,ENE,65,1.0,3.0,94,0.00,,,0.00,weatherlink.com 1.10,2013-11-13 08:07:00,
2013-11-13 00:22:00,54.5,53.0,30.30,NE,40,2.0,4.0,93,0.00,,,0.00,weatherlink.com 1.10,2013-11-13 08:22:00,
2013-11-13 00:37:00,54.2,52.0,30.30,NE,35,2.0,4.0,93,0.00,,,0.00,weatherlink.com 1.10,2013-11-13 08:37:00,
2013-11-13 00:52:00,54.2,52.0,30.30,ENE,59,1.0,4.0,93,0.00,,,0.00,weatherlink.com 1.10,2013-11-13 08:52:00,
2013-11-13 01:07:00,54.1,52.0,30.29,ENE,59,2.0,4.0,93,0.00,,,0.00,weatherlink.com 1.10,2013-11-13 09:07:00,
2013-11-13 01:22:00,54.0,52.0,30.29,NE,40,1.0,3.0,94,0.00,,,0.00,weatherlink.com 1.10,2013-11-13 09:22:00,
2013-11-13 01:37:00,54.0,52.0,30.28,NE,40,1.0,2.0,94,0.00,,,0.00,weatherlink.com 1.10,2013-11-13 09:37:00,
2013-11-13 01:52:00,52.7,50.0,30.28,NE,40,1.0,1.0,91,0.00,,,0.00,weatherlink.com 1.10,2013-11-13 09:52:00,
2013-11-13 02:07:00,52.5,51.0,30.28,NE,53,3.0,4.0,95,0.00,,,0.00,weatherlink.com 1.10,2013-11-13 10:07:00,
2013-11-13 02:22:00,52.8,52.0,30.27,NE,53,2.0,3.0,95,0.00,,,0.00,weatherlink.com 1.10,2013-11-13 10:22:00,
2013-11-13 02:37:00,52.6,51.0,30.27,NE,36,0.0,2.0,95,0.00,,,0.00,weatherlink.com 1.10,2013-11-13 10:37:00,
2013-11-13 02:52:00,52.2,51.0,30.27,NE,36,0.0,0.0,95,0.00,,,0.00,weatherlink.com 1.10,2013-11-13 10:52:00,
2013-11-13 03:07:00,52.2,51.0,30.26,ENE,62,0.0,2.0,95,0.00,,,0.00,weatherlink.com 1.10,2013-11-13 11:07:00,
2013-11-13 03:22:00,52.3,51.0,30.26,ENE,62,0.0,2.0,96,0.00,,,0.00,weatherlink.com 1.10,2013-11-13 11:22:00,
2013-11-13 03:37:00,52.5,51.0,30.25,NE,49,2.0,2.0,96,0.00,,,0.00,weatherlink.com 1.10,2013-11-13 11:37:00,
2013-11-13 03:52:00,52.2,51.0,30.25,NNE,19,0.0,0.0,96,0.00,,,0.00,weatherlink.com 1.10,2013-11-13 11:52:00,
2013-11-13 04:07:00,52.3,52.0,30.24,NNE,19,0.0,1.0,97,0.00,,,0.00,weatherlink.com 1.10,2013-11-13 12:07:00,
2013-11-13 04:22:00,52.3,51.0,30.24,NNE,19,1.0,2.0,96,0.00,,,0.00,weatherlink.com 1.10,2013-11-13 12:22:00,
2013-11-13 04:37:00,51.7,51.0,30.24,NNE,25,1.0,3.0,96,0.00,,,0.00,weatherlink.com 1.10,2013-11-13 12:37:00,
2013-11-13 04:52:00,52.0,51.0,30.24,ENE,59,0.0,4.0,96,0.00,,,0.00,weatherlink.com 1.10,2013-11-13 12:52:00,
2013-11-13 05:07:00,52.0,51.0,30.24,ENE,59,0.0,2.0,96,0.00,,,0.00,weatherlink.com 1.10,2013-11-13 13:07:00,
2013-11-13 05:22:00,51.8,51.0,30.23,ENE,57,0.0,1.0,96,0.00,,,0.00,weatherlink.com 1.10,2013-11-13 13:22:00,
2013-11-13 05:37:00,51.6,51.0,30.23,ENE,57,1.0,2.0,96,0.00,,,0.00,weatherlink.com 1.10,2013-11-13 13:37:00,
2013-11-13 05:52:00,51.3,50.0,30.24,NE,42,1.0,2.0,96,0.00,,,0.00,weatherlink.com 1.10,2013-11-13 13:52:00,
2013-11-13 06:08:00,51.8,51.0,30.23,NE,53,0.0,2.0,97,0.00,,,0.00,weatherlink.com 1.10,2013-11-13 14:08:00,
2013-11-13 06:23:00,51.6,51.0,30.24,NE,44,1.0,3.0,96,0.00,,,0.00,weatherlink.com 1.10,2013-11-13 14:23:00,
2013-11-13 06:38:00,51.6,51.0,30.25,NE,44,1.0,2.0,97,0.00,,,0.00,weatherlink.com 1.10,2013-11-13 14:38:00,
2013-11-13 06:53:00,51.2,50.0,30.26,NE,53,2.0,2.0,96,0.00,,,0.00,weatherlink.com 1.10,2013-11-13 14:53:00,
2013-11-13 07:08:00,50.8,50.0,30.26,NE,35,1.0,2.0,96,0.00,,,0.00,weatherlink.com 1.10,2013-11-13 15:08:00,
2013-11-13 07:23:00,50.8,50.0,30.26,NE,34,0.0,1.0,96,0.00,,,0.00,weatherlink.com 1.10,2013-11-13 15:23:00,
2013-11-13 07:38:00,51.1,50.0,30.26,NE,51,0.0,3.0,97,0.00,,,0.00,weatherlink.com 1.10,2013-11-13 15:38:00,
2013-11-13 07:53:00,50.4,49.0,30.27,ENE,61,1.0,2.0,95,0.00,,,0.00,weatherlink.com 1.10,2013-11-13 15:53:00,
2013-11-13 08:08:00,52.6,52.0,30.27,ENE,63,0.0,3.0,97,0.00,,,0.00,weatherlink.com 1.10,2013-11-13 16:08:00,
2013-11-13 08:23:00,54.5,53.0,30.26,ENE,63,1.0,1.0,93,0.00,,,0.00,weatherlink.com 1.10,2013-11-13 16:23:00,
2013-11-13 08:38:00,53.3,51.0,30.27,SSW,192,0.0,0.0,92,0.00,,,0.00,weatherlink.com 1.10,2013-11-13 16:38:00,
2013-11-13 08:53:00,55.9,52.0,30.27,South,191,1.0,2.0,88,0.00,,,0.00,weatherlink.com 1.10,2013-11-13 16:53:00,
2013-11-13 09:08:00,58.7,54.0,30.27,West,266,0.0,2.0,85,0.00,,,0.00,weatherlink.com 1.10,2013-11-13 17:08:00,
2013-11-13 09:23:00,58.2,53.0,30.27,WSW,254,2.0,2.0,82,0.00,,,0.00,weatherlink.com 1.10,2013-11-13 17:23:00,
2013-11-13 09:38:00,58.4,53.0,30.27,WSW,237,2.0,2.0,82,0.00,,,0.00,weatherlink.com 1.10,2013-11-13 17:38:00,
2013-11-13 09:53:00,61.3,54.0,30.26,SSE,165,0.0,2.0,77,0.00,,,0.00,weatherlink.com 1.10,2013-11-13 17:53:00,
2013-11-13 10:08:00,61.1,53.0,30.26,SSW,201,1.0,2.0,75,0.00,,,0.00,weatherlink.com 1.10,2013-11-13 18:08:00,
2013-11-13 10:24:00,62.2,54.0,30.25,SSW,207,3.0,3.0,74,0.00,,,0.00,weatherlink.com 1.10,2013-11-13 18:24:00,
2013-11-13 10:38:00,62.1,53.0,30.24,South,180,1.0,3.0,72,0.00,,,0.00,weatherlink.com 1.10,2013-11-13 18:38:00,
2013-11-13 10:53:00,65.4,53.0,30.23,South,182,2.0,4.0,65,0.00,,,0.00,weatherlink.com 1.10,2013-11-13 18:53:00,
2013-11-13 11:08:00,64.8,54.0,30.23,SSW,194,4.0,5.0,68,0.00,,,0.00,weatherlink.com 1.10,2013-11-13 19:08:00,
2013-11-13 11:23:00,67.3,52.0,30.23,WNW,284,2.0,3.0,58,0.00,,,0.00,weatherlink.com 1.10,2013-11-13 19:23:00,
2013-11-13 11:38:00,67.7,52.0,30.23,WNW,303,1.0,5.0,57,0.00,,,0.00,weatherlink.com 1.10,2013-11-13 19:38:00,
2013-11-13 11:54:00,69.9,53.0,30.22,WNW,288,1.0,4.0,55,0.00,,,0.00,weatherlink.com 1.10,2013-11-13 19:54:00,
2013-11-13 12:08:00,71.0,52.0,30.22,West,260,1.0,3.0,52,0.00,,,0.00,weatherlink.com 1.10,2013-11-13 20:08:00,
2013-11-13 12:23:00,71.8,52.0,30.21,WNW,294,1.0,7.0,50,0.00,,,0.00,weatherlink.com 1.10,2013-11-13 20:23:00,
2013-11-13 12:38:00,72.8,53.0,30.20,WSW,254,1.0,6.0,50,0.00,,,0.00,weatherlink.com 1.10,2013-11-13 20:38:00,
2013-11-13 12:53:00,73.1,53.0,30.19,SSW,210,2.0,5.0,49,0.00,,,0.00,weatherlink.com 1.10,2013-11-13 20:53:00,
2013-11-13 13:08:00,73.8,54.0,30.18,NW,306,1.0,5.0,51,0.00,,,0.00,weatherlink.com 1.10,2013-11-13 21:08:00,
2013-11-13 13:23:00,74.5,55.0,30.17,WNW,295,5.0,7.0,50,0.00,,,0.00,weatherlink.com 1.10,2013-11-13 21:23:00,
2013-11-13 13:39:00,74.1,55.0,30.16,SW,217,5.0,6.0,51,0.00,,,0.00,weatherlink.com 1.10,2013-11-13 21:39:00,
2013-11-13 13:54:00,74.2,56.0,30.17,WSW,249,2.0,9.0,53,0.00,,,0.00,weatherlink.com 1.10,2013-11-13 21:54:00,
2013-11-13 14:09:00,74.7,56.0,30.17,WSW,241,2.0,5.0,52,0.00,,,0.00,weatherlink.com 1.10,2013-11-13 22:09:00,
2013-11-13 14:24:00,74.0,56.0,30.17,WNW,293,4.0,7.0,53,0.00,,,0.00,weatherlink.com 1.10,2013-11-13 22:24:00,
2013-11-13 14:39:00,72.5,55.0,30.17,WNW,296,3.0,4.0,55,0.00,,,0.00,weatherlink.com 1.10,2013-11-13 22:39:00,
2013-11-13 14:54:00,72.7,55.0,30.16,WNW,292,3.0,6.0,55,0.00,,,0.00,weatherlink.com 1.10,2013-11-13 22:54:00,
2013-11-13 15:09:00,71.4,56.0,30.16,West,265,2.0,5.0,58,0.00,,,0.00,weatherlink.com 1.10,2013-11-13 23:09:00,
2013-11-13 15:24:00,71.4,55.0,30.16,NW,325,3.0,5.0,57,0.00,,,0.00,weatherlink.com 1.10,2013-11-13 23:24:00,
2013-11-13 15:39:00,70.6,55.0,30.16,WSW,257,2.0,7.0,58,0.00,,,0.00,weatherlink.com 1.10,2013-11-13 23:39:00,
2013-11-13 15:54:00,68.9,55.0,30.16,WSW,250,2.0,5.0,61,0.00,,,0.00,weatherlink.com 1.10,2013-11-13 23:54:00,
2013-11-13 16:09:00,68.9,55.0,30.14,NW,311,1.0,3.0,61,0.00,,,0.00,weatherlink.com 1.10,2013-11-14 00:09:00,
2013-11-13 16:24:00,67.9,55.0,30.14,WNW,288,2.0,4.0,63,0.00,,,0.00,weatherlink.com 1.10,2013-11-14 00:24:00,
2013-11-13 16:39:00,66.5,54.0,30.15,WNW,287,0.0,4.0,65,0.00,,,0.00,weatherlink.com 1.10,2013-11-14 00:39:00,
2013-11-13 16:54:00,65.5,54.0,30.15,ENE,77,0.0,3.0,66,0.00,,,0.00,weatherlink.com 1.10,2013-11-14 00:54:00,
2013-11-13 17:09:00,64.1,54.0,30.15,ENE,63,1.0,2.0,70,0.00,,,0.00,weatherlink.com 1.10,2013-11-14 01:09:00,
2013-11-13 17:24:00,63.2,54.0,30.15,NE,49,1.0,2.0,72,0.00,,,0.00,weatherlink.com 1.10,2013-11-14 01:24:00,
2013-11-13 17:39:00,62.5,54.0,30.15,East,98,1.0,2.0,74,0.00,,,0.00,weatherlink.com 1.10,2013-11-14 01:39:00,
2013-11-13 17:54:00,61.9,54.0,30.15,East,79,0.0,1.0,75,0.00,,,0.00,weatherlink.com 1.10,2013-11-14 01:54:00,
2013-11-13 18:09:00,60.8,54.0,30.15,WNW,294,0.0,2.0,77,0.00,,,0.00,weatherlink.com 1.10,2013-11-14 02:09:00,
2013-11-13 18:24:00,59.4,53.0,30.15,WNW,294,0.0,1.0,80,0.00,,,0.00,weatherlink.com 1.10,2013-11-14 02:24:00,
2013-11-13 18:39:00,58.3,53.0,30.15,WNW,294,1.0,1.0,82,0.00,,,0.00,weatherlink.com 1.10,2013-11-14 02:39:00,
2013-11-13 18:54:00,56.6,53.0,30.14,WNW,294,0.0,2.0,86,0.00,,,0.00,weatherlink.com 1.10,2013-11-14 02:54:00,
2013-11-13 19:09:00,55.4,52.0,30.14,WNW,294,1.0,1.0,87,0.00,,,0.00,weatherlink.com 1.10,2013-11-14 03:09:00,
2013-11-13 19:24:00,54.5,51.0,30.14,WNW,294,0.0,1.0,88,0.00,,,0.00,weatherlink.com 1.10,2013-11-14 03:24:00,
2013-11-13 19:39:00,54.3,52.0,30.14,ENE,62,0.0,2.0,91,0.00,,,0.00,weatherlink.com 1.10,2013-11-14 03:39:00,
2013-11-13 19:54:00,54.0,52.0,30.14,NE,51,0.0,2.0,91,0.00,,,0.00,weatherlink.com 1.10,2013-11-14 03:54:00,
2013-11-13 20:09:00,53.9,52.0,30.14,NE,50,2.0,2.0,93,0.00,,,0.00,weatherlink.com 1.10,2013-11-14 04:09:00,
2013-11-13 20:24:00,53.7,52.0,30.14,NE,45,1.0,2.0,93,0.00,,,0.00,weatherlink.com 1.10,2013-11-14 04:24:00,
2013-11-13 20:39:00,53.7,52.0,30.14,East,81,2.0,3.0,94,0.00,,,0.00,weatherlink.com 1.10,2013-11-14 04:39:00,
2013-11-13 20:54:00,53.2,51.0,30.15,SE,134,1.0,2.0,92,0.00,,,0.00,weatherlink.com 1.10,2013-11-14 04:54:00,
2013-11-13 21:09:00,52.2,51.0,30.15,East,82,3.0,3.0,95,0.00,,,0.00,weatherlink.com 1.10,2013-11-14 05:09:00,
2013-11-13 21:24:00,53.7,52.0,30.15,East,86,1.0,5.0,93,0.00,,,0.00,weatherlink.com 1.10,2013-11-14 05:24:00,
2013-11-13 21:39:00,52.4,50.0,30.15,ENE,64,5.0,7.0,92,0.00,,,0.00,weatherlink.com 1.10,2013-11-14 05:39:00,
2013-11-13 21:54:00,52.4,51.0,30.15,NE,46,0.0,2.0,95,0.00,,,0.00,weatherlink.com 1.10,2013-11-14 05:54:00,
2013-11-13 22:09:00,52.6,52.0,30.14,NE,46,1.0,2.0,96,0.00,,,0.00,weatherlink.com 1.10,2013-11-14 06:09:00,
2013-11-13 22:24:00,52.6,51.0,30.15,NNE,32,1.0,1.0,94,0.00,,,0.00,weatherlink.com 1.10,2013-11-14 06:24:00,
2013-11-13 22:39:00,52.4,51.0,30.15,NNE,32,0.0,0.0,95,0.00,,,0.00,weatherlink.com 1.10,2013-11-14 06:39:00,
2013-11-13 22:54:00,51.6,50.0,30.15,NE,45,0.0,7.0,94,0.00,,,0.00,weatherlink.com 1.10,2013-11-14 06:54:00,
2013-11-13 23:09:00,51.6,50.0,30.15,NE,45,0.0,2.0,95,0.00,,,0.00,weatherlink.com 1.10,2013-11-14 07:09:00,
2013-11-13 23:24:00,51.9,51.0,30.15,NE,45,0.0,2.0,96,0.00,,,0.00,weatherlink.com 1.10,2013-11-14 07:24:00,
2013-11-13 23:39:00,51.8,51.0,30.15,NE,45,0.0,2.0,96,0.00,,,0.00,weatherlink.com 1.10,2013-11-14 07:39:00,
2013-11-13 23:54:00,51.0,50.0,30.15,NE,45,0.0,0.0,95,0.00,,,0.00,weatherlink.com 1.10,2013-11-14 07:54:00,